Time;durP1;ratioP1;P1;durP2;ratioP2;P2;SDS_P1;SDS_P2;PMS_P1;PMS_P2;Temp;Humidity;BMP_temperature;BMP_pressure;BME280_temperature;BME280_humidity;BME280_pressure;Samples;Min_cycle;Max_cycle;Signal;HPM_P1;HPM_P2
2021/05/20 00:02:18;;;;;;;8.38;4.17;;;;;;;19.79;52.77;100930.39;1720786;82;21064;-49
2021/05/20 00:04:45;;;;;;;23.60;8.05;;;;;;;19.78;52.71;100936.17;1602815;85;21080;-49
2021/05/20 00:07:12;;;;;;;18.55;7.70;;;;;;;19.75;52.70;100935.47;1664819;85;21109;-49
2021/05/20 00:09:38;;;;;;;22.37;7.75;;;;;;;19.75;52.57;100942.06;1653313;85;21618;-49
2021/05/20 00:12:06;;;;;;;17.77;6.97;;;;;;;19.70;52.52;100932.25;1654411;85;21075;-48
2021/05/20 00:14:33;;;;;;;17.27;6.58;;;;;;;19.67;52.62;100929.77;1654544;85;21048;-48
2021/05/20 00:17:01;;;;;;;17.45;6.70;;;;;;;19.64;52.86;100927.32;1708520;82;21635;-49
2021/05/20 00:19:28;;;;;;;16.85;5.87;;;;;;;19.60;52.92;100923.16;1703274;83;21073;-49
2021/05/20 00:21:55;;;;;;;12.35;5.87;;;;;;;19.58;52.60;100925.03;1712433;82;21061;-49
2021/05/20 00:24:21;;;;;;;15.80;5.72;;;;;;;19.54;52.58;100942.80;1711237;82;21619;-49
2021/05/20 00:26:49;;;;;;;13.05;6.30;;;;;;;19.50;52.89;100939.95;1717357;82;21101;-49
2021/05/20 00:29:17;;;;;;;12.05;5.42;;;;;;;19.47;52.99;100934.36;1708147;83;21063;-48
2021/05/20 00:31:43;;;;;;;10.05;4.80;;;;;;;19.44;53.32;100926.64;1718849;82;21071;-48
2021/05/20 00:34:10;;;;;;;12.43;4.92;;;;;;;19.43;53.40;100922.28;1741406;79;21102;-49
2021/05/20 00:36:37;;;;;;;11.12;5.60;;;;;;;19.42;53.54;100910.03;1721725;81;21096;-48
2021/05/20 00:39:05;;;;;;;10.98;5.50;;;;;;;19.40;53.78;100902.67;1710345;82;21065;-49
2021/05/20 00:41:33;;;;;;;11.85;5.87;;;;;;;19.39;53.83;100893.04;1773337;79;21044;-49
2021/05/20 00:44:00;;;;;;;7.45;5.08;;;;;;;19.38;53.71;100892.67;1773580;79;21032;-49
2021/05/20 00:46:28;;;;;;;7.25;5.10;;;;;;;19.37;53.50;100888.31;1773901;80;21051;-49
2021/05/20 00:48:55;;;;;;;7.35;5.25;;;;;;;19.36;53.40;100893.69;1781097;79;21095;-49
2021/05/20 00:51:22;;;;;;;7.78;5.80;;;;;;;19.34;53.62;100891.14;1774088;79;21104;-49
2021/05/20 00:53:51;;;;;;;6.53;4.67;;;;;;;19.35;54.05;100889.36;1729678;82;21586;-49
2021/05/20 00:56:20;;;;;;;6.75;5.70;;;;;;;19.35;54.17;100886.72;1720491;81;21061;-49
2021/05/20 00:58:49;;;;;;;6.12;5.40;;;;;;;19.35;54.30;100892.00;1724135;80;21100;-49
2021/05/20 01:01:17;;;;;;;6.03;4.90;;;;;;;19.34;54.60;100888.50;1701810;82;21063;-49
2021/05/20 01:03:44;;;;;;;6.62;5.28;;;;;;;19.35;54.86;100887.55;1779925;79;21073;-49
2021/05/20 01:06:11;;;;;;;8.40;5.80;;;;;;;19.35;54.53;100886.72;1699453;81;21032;-49
2021/05/20 01:08:38;;;;;;;6.72;5.42;;;;;;;19.32;54.37;100896.94;1781578;79;21032;-50
2021/05/20 01:11:05;;;;;;;7.55;5.83;;;;;;;19.29;54.35;100897.09;1759655;79;21572;-48
2021/05/20 01:13:32;;;;;;;6.85;5.80;;;;;;;19.30;54.42;100903.23;1719871;82;21067;-48
2021/05/20 01:16:00;;;;;;;8.28;6.12;;;;;;;19.28;54.32;100915.20;1771275;79;21634;-49
2021/05/20 01:18:27;;;;;;;7.40;5.80;;;;;;;19.27;54.00;100913.48;1772749;79;21064;-49
2021/05/20 01:20:55;;;;;;;7.17;5.17;;;;;;;19.26;53.91;100924.98;1780270;79;21008;-49
2021/05/20 01:23:22;;;;;;;7.72;6.53;;;;;;;19.25;54.13;100921.95;1770834;79;21662;-49
2021/05/20 01:25:50;;;;;;;7.40;6.50;;;;;;;19.22;54.28;100926.09;1767087;80;21048;-49
2021/05/20 01:28:22;;;;;;;9.73;6.92;;;;;;;19.21;54.36;100925.69;1774963;79;21104;-49
2021/05/20 01:30:50;;;;;;;8.45;6.60;;;;;;;19.19;54.43;100915.69;1779439;79;21040;-50
2021/05/20 01:33:17;;;;;;;8.53;6.45;;;;;;;19.18;54.51;100907.41;1772217;79;21004;-49
2021/05/20 01:35:46;;;;;;;6.95;5.65;;;;;;;19.15;54.66;100914.16;1769445;79;21068;-49
2021/05/20 01:40:52;;;;;;;8.80;6.90;;;;;;;19.11;54.94;100914.39;1764624;79;21069;-49
2021/05/20 01:43:18;;;;;;;9.70;7.28;;;;;;;19.09;54.96;100916.27;1768796;79;21017;-48
2021/05/20 01:45:57;;;;;;;7.35;6.53;;;;;;;19.08;55.19;100928.59;1786380;79;21104;-49
2021/05/20 01:48:20;;;;;;;8.70;6.53;;;;;;;19.06;55.30;100923.87;1769253;79;21040;-49
2021/05/20 01:50:46;;;;;;;9.10;7.25;;;;;;;19.06;55.39;100919.91;1710385;82;21044;-49
2021/05/20 01:53:14;;;;;;;8.58;7.37;;;;;;;19.07;55.37;100907.13;1722808;82;21650;-49
2021/05/20 01:55:41;;;;;;;9.88;7.08;;;;;;;19.07;55.45;100916.81;1710306;82;21600;-49
2021/05/20 01:58:08;;;;;;;9.95;7.65;;;;;;;19.05;55.61;100917.37;1715573;82;21081;-50
2021/05/20 02:00:35;;;;;;;9.93;7.78;;;;;;;19.00;55.82;100914.14;1764878;79;21045;-49
2021/05/20 02:03:02;;;;;;;11.43;7.25;;;;;;;19.00;55.98;100907.06;1769755;79;21543;-49
2021/05/20 02:05:29;;;;;;;7.97;7.17;;;;;;;19.00;56.13;100904.42;1777992;79;21085;-50
2021/05/20 02:07:55;;;;;;;7.87;6.00;;;;;;;19.00;56.30;100901.78;1783255;79;21080;-49
2021/05/20 02:10:22;;;;;;;7.25;6.47;;;;;;;19.01;56.16;100893.41;1772554;79;21098;-49
2021/05/20 02:12:49;;;;;;;6.47;5.87;;;;;;;19.02;56.14;100896.45;1774068;79;21540;-49
2021/05/20 02:15:16;;;;;;;7.20;5.85;;;;;;;19.01;56.06;100886.36;1788377;79;21548;-50
2021/05/20 02:17:44;;;;;;;7.25;6.22;;;;;;;19.01;55.77;100885.05;1773174;80;21077;-49
2021/05/20 02:20:13;;;;;;;7.03;6.33;;;;;;;19.01;55.86;100878.91;1771514;79;21043;-49
2021/05/20 02:22:40;;;;;;;6.90;5.42;;;;;;;19.01;55.82;100869.22;1767561;79;21044;-49
2021/05/20 02:25:09;;;;;;;5.53;5.03;;;;;;;19.01;55.72;100861.30;1768132;80;21087;-49
2021/05/20 02:27:35;;;;;;;5.33;4.75;;;;;;;19.01;55.53;100868.36;1780880;79;21044;-49
2021/05/20 02:30:04;;;;;;;5.00;4.50;;;;;;;19.01;55.38;100873.17;1760749;80;21057;-49
2021/05/20 02:32:31;;;;;;;4.62;4.25;;;;;;;19.02;54.98;100862.99;1760831;79;21532;-49
2021/05/20 02:34:57;;;;;;;4.90;4.05;;;;;;;19.04;54.71;100858.48;1778773;79;21106;-49
2021/05/20 02:37:24;;;;;;;4.78;4.37;;;;;;;19.06;54.44;100856.61;1782877;79;21068;-49
2021/05/20 02:39:51;;;;;;;4.67;4.20;;;;;;;19.07;54.25;100855.69;1710302;82;21067;-49
2021/05/20 02:42:18;;;;;;;4.28;3.87;;;;;;;19.11;54.10;100843.18;1765059;79;21064;-49
2021/05/20 02:44:45;;;;;;;5.25;4.40;;;;;;;19.13;53.95;100836.03;1728061;82;21028;-49
2021/05/20 02:47:11;;;;;;;4.17;3.77;;;;;;;19.13;53.92;100827.66;1701817;82;21112;-49
2021/05/20 02:49:38;;;;;;;4.37;3.98;;;;;;;19.15;53.80;100827.56;1739337;80;21104;-49
2021/05/20 02:52:06;;;;;;;4.70;4.20;;;;;;;19.16;53.73;100831.46;1720981;81;21556;-49
2021/05/20 02:54:32;;;;;;;4.50;4.10;;;;;;;19.18;53.79;100820.35;1778314;79;21071;-49
2021/05/20 02:56:59;;;;;;;4.83;4.40;;;;;;;19.19;53.81;100823.36;1765973;80;21057;-49
2021/05/20 02:59:26;;;;;;;5.85;4.37;;;;;;;19.19;53.81;100819.40;1768074;79;21518;-49
2021/05/20 03:01:53;;;;;;;4.80;4.40;;;;;;;19.22;53.85;100812.65;1789425;79;21067;-49
2021/05/20 03:04:20;;;;;;;4.90;4.50;;;;;;;19.25;53.89;100812.45;1773809;79;21039;-49
2021/05/20 03:06:47;;;;;;;4.62;4.22;;;;;;;19.30;53.96;100815.70;1759279;80;21104;-48
2021/05/20 03:09:15;;;;;;;4.97;4.58;;;;;;;19.33;53.95;100820.82;1773017;79;21596;-49
2021/05/20 03:11:41;;;;;;;4.92;4.08;;;;;;;19.36;53.82;100821.98;1783137;79;21044;-49
2021/05/20 03:14:08;;;;;;;6.37;5.40;;;;;;;19.40;53.66;100818.69;1768730;79;21543;-49
2021/05/20 03:16:35;;;;;;;7.12;5.00;;;;;;;19.42;53.45;100818.13;1771166;79;21024;-49
2021/05/20 03:19:03;;;;;;;5.15;4.65;;;;;;;19.44;53.39;100817.12;1761052;80;21033;-49
2021/05/20 03:21:30;;;;;;;5.50;5.00;;;;;;;19.48;53.14;100816.00;1768688;78;21032;-49
2021/05/20 03:23:58;;;;;;;5.53;4.87;;;;;;;19.51;52.94;100823.36;1780235;79;21100;-49
2021/05/20 03:26:24;;;;;;;6.25;5.20;;;;;;;19.56;52.84;100819.51;1771124;79;21035;-49
2021/05/20 03:28:51;;;;;;;6.00;5.17;;;;;;;19.61;52.71;100821.89;1723684;82;21033;-49
2021/05/20 03:31:18;;;;;;;5.42;4.92;;;;;;;19.63;52.64;100819.55;1765181;79;21600;-49
2021/05/20 03:33:45;;;;;;;5.28;4.78;;;;;;;19.64;52.65;100817.77;1775571;79;21075;-49
2021/05/20 03:36:12;;;;;;;5.05;4.58;;;;;;;19.69;52.64;100822.30;1776530;79;21563;-49
2021/05/20 03:38:39;;;;;;;5.50;5.00;;;;;;;19.73;52.60;100829.95;1776619;79;21075;-49
2021/05/20 03:41:06;;;;;;;6.05;5.22;;;;;;;19.77;52.62;100825.33;1708372;82;21069;-49
2021/05/20 03:43:34;;;;;;;7.33;5.28;;;;;;;19.79;52.61;100823.45;1772618;79;21027;-49
2021/05/20 03:46:01;;;;;;;7.20;4.75;;;;;;;19.79;52.65;100828.27;1774596;79;21024;-49
2021/05/20 03:48:29;;;;;;;5.70;5.20;;;;;;;19.80;52.79;100821.20;1773150;79;21545;-49
2021/05/20 03:50:58;;;;;;;5.00;4.53;;;;;;;19.82;52.80;100828.57;1784277;79;21012;-49
2021/05/20 03:53:31;;;;;;;7.35;5.37;;;;;;;19.83;52.81;100817.05;1727761;82;21033;-50
2021/05/20 03:55:58;;;;;;;5.72;5.22;;;;;;;19.85;52.79;100817.81;1768381;80;21675;-49
2021/05/20 03:58:26;;;;;;;6.83;4.97;;;;;;;19.83;52.83;100822.33;1775506;79;21050;-49
2021/05/20 04:00:53;;;;;;;6.37;5.12;;;;;;;19.83;52.85;100834.22;1761514;80;21092;-49
2021/05/20 04:03:32;;;;;;;5.65;5.10;;;;;;;19.84;52.96;100839.89;1775641;79;21049;-48
2021/05/20 04:06:02;;;;;;;6.72;5.12;;;;;;;19.86;53.03;100833.59;1768219;79;21563;-49
2021/05/20 04:08:28;;;;;;;4.50;4.10;;;;;;;19.88;52.56;100822.92;1762387;80;21036;-49
2021/05/20 04:10:57;;;;;;;6.10;4.85;;;;;;;19.89;52.29;100814.05;1751766;80;21618;-48
2021/05/20 04:13:40;;;;;;;5.50;4.95;;;;;;;19.83;51.91;100810.45;1744749;80;21070;-48
2021/05/20 04:16:09;;;;;;;5.40;4.92;;;;;;;19.77;51.94;100817.41;1757547;80;21060;-49
2021/05/20 04:18:36;;;;;;;5.75;5.25;;;;;;;19.72;51.95;100819.48;1755508;80;21044;-49
2021/05/20 04:21:04;;;;;;;7.00;5.55;;;;;;;19.64;52.00;100815.12;1746292;80;21769;-49
2021/05/20 04:23:31;;;;;;;7.55;5.53;;;;;;;19.56;52.23;100812.09;1754954;80;21061;-49
2021/05/20 04:25:58;;;;;;;6.50;5.72;;;;;;;19.44;52.71;100810.52;1687147;84;21123;-49
2021/05/20 04:28:26;;;;;;;6.03;5.42;;;;;;;19.37;53.09;100818.39;1717073;82;21041;-49
2021/05/20 04:30:52;;;;;;;6.40;5.72;;;;;;;19.31;53.60;100826.63;1686075;83;21102;-49
2021/05/20 04:33:20;;;;;;;6.08;5.50;;;;;;;19.28;53.72;100837.36;1689888;83;21073;-49
2021/05/20 04:35:47;;;;;;;6.97;5.53;;;;;;;19.25;53.92;100848.08;1690213;84;21130;-49
2021/05/20 04:38:14;;;;;;;5.53;5.05;;;;;;;19.24;54.27;100843.75;1699278;84;21063;-49
2021/05/20 04:40:41;;;;;;;7.08;5.42;;;;;;;19.25;54.54;100845.44;1689995;84;21099;-49
2021/05/20 04:43:08;;;;;;;6.53;5.92;;;;;;;19.25;54.74;100855.98;1690176;84;21643;-49
2021/05/20 04:45:35;;;;;;;12.88;8.78;;;;;;;19.25;54.94;100863.91;1705701;83;21138;-48
2021/05/20 04:48:03;;;;;;;100.02;51.40;;;;;;;19.25;55.22;100865.22;1667540;84;21071;-49
2021/05/20 04:50:30;;;;;;;113.08;59.67;;;;;;;19.27;55.43;100868.63;1752367;80;21043;-49
2021/05/20 04:52:57;;;;;;;41.18;24.32;;;;;;;19.29;55.47;100869.39;1768335;80;21057;-49
2021/05/20 04:55:23;;;;;;;18.23;13.28;;;;;;;19.30;55.67;100879.02;1757948;80;21188;-49
2021/05/20 04:57:50;;;;;;;11.83;9.50;;;;;;;19.32;55.81;100879.79;1759691;80;21043;-49
2021/05/20 05:00:18;;;;;;;8.70;7.80;;;;;;;19.33;55.56;100881.51;1760592;80;21592;-49
2021/05/20 05:02:45;;;;;;;12.10;10.90;;;;;;;19.32;55.59;100873.19;1764978;80;21056;-49
2021/05/20 05:05:13;;;;;;;13.68;12.37;;;;;;;19.27;55.62;100868.63;1762450;79;21057;-48
2021/05/20 05:07:39;;;;;;;9.63;8.63;;;;;;;19.23;55.78;100867.09;1778384;79;21001;-49
2021/05/20 05:10:08;;;;;;;8.43;7.60;;;;;;;19.21;55.92;100870.75;1775690;79;21163;-49
2021/05/20 05:12:35;;;;;;;7.37;6.65;;;;;;;19.21;56.09;100876.88;1797572;79;21539;-49
2021/05/20 05:15:03;;;;;;;8.68;5.72;;;;;;;19.24;56.23;100887.28;1783324;79;21064;-49
2021/05/20 05:17:30;;;;;;;8.28;5.58;;;;;;;19.23;56.13;100885.56;1749636;81;21560;-49
2021/05/20 05:19:57;;;;;;;5.42;5.03;;;;;;;19.22;56.49;100898.84;1715232;82;21071;-49
2021/05/20 05:22:24;;;;;;;7.20;5.85;;;;;;;19.19;56.87;100903.81;1718771;82;21525;-49
2021/05/20 05:24:51;;;;;;;6.55;5.95;;;;;;;19.21;56.87;100910.31;1755628;79;21072;-49
2021/05/20 05:27:17;;;;;;;7.90;7.15;;;;;;;19.20;56.93;100916.55;1779994;79;21659;-49
2021/05/20 05:29:44;;;;;;;8.08;5.97;;;;;;;19.20;56.98;100917.86;1781910;79;21068;-49
2021/05/20 05:32:11;;;;;;;6.42;5.83;;;;;;;19.23;57.13;100931.73;1785667;79;21564;-49
2021/05/20 05:34:38;;;;;;;7.37;6.47;;;;;;;19.28;57.19;100931.03;1771064;79;21069;-49
2021/05/20 05:37:05;;;;;;;7.03;5.83;;;;;;;19.30;57.05;100921.23;1773691;79;21169;-49
2021/05/20 05:39:32;;;;;;;7.92;7.00;;;;;;;19.32;57.32;100918.05;1767662;79;21668;-49
2021/05/20 05:41:59;;;;;;;8.05;7.28;;;;;;;19.30;57.45;100912.00;1717540;82;21017;-49
2021/05/20 05:44:26;;;;;;;8.08;6.37;;;;;;;19.26;57.79;100909.16;1731563;82;21100;-50
2021/05/20 05:46:53;;;;;;;7.90;7.10;;;;;;;19.25;58.08;100903.48;1739733;80;21016;-49
2021/05/20 05:51:54;;;;;;;8.85;6.50;;;;;;;19.22;58.87;100907.63;1709563;81;21614;-50
2021/05/20 05:54:20;;;;;;;7.42;6.60;;;;;;;19.23;59.05;100905.34;1694460;82;21095;-50
2021/05/20 05:56:48;;;;;;;7.00;6.30;;;;;;;19.24;59.27;100895.20;1693911;81;21093;-49
2021/05/20 05:59:15;;;;;;;7.75;6.65;;;;;;;19.25;59.35;100885.47;1697499;83;21083;-49
2021/05/20 06:01:43;;;;;;;6.22;5.53;;;;;;;19.24;59.24;100887.28;1705920;82;21647;-50
2021/05/20 06:04:10;;;;;;;6.67;6.08;;;;;;;19.24;59.10;100889.92;1687803;82;21167;-49
2021/05/20 06:06:37;;;;;;;6.85;6.00;;;;;;;19.22;59.02;100890.47;1697448;82;21430;-49
2021/05/20 06:09:06;;;;;;;6.55;5.95;;;;;;;19.18;59.00;100890.26;1694336;83;21066;-50
2021/05/20 06:11:33;;;;;;;6.30;5.60;;;;;;;19.16;59.01;100893.45;1702756;81;21087;-49
2021/05/20 06:14:07;;;;;;;6.65;6.00;;;;;;;19.14;58.99;100891.36;1703995;82;21982;-49
2021/05/20 06:16:35;;;;;;;6.15;5.55;;;;;;;19.11;58.95;100888.88;1708273;82;21069;-49
2021/05/20 06:19:03;;;;;;;;;;;;;;;19.12;58.76;100893.23;1704370;82;21107;-49
2021/05/20 06:21:30;;;;;;;6.87;6.10;;;;;;;19.11;58.78;100888.88;1693326;83;20604;-50
2021/05/20 06:23:57;;;;;;;7.17;5.67;;;;;;;19.08;58.88;100882.44;1699446;82;21084;-49
2021/05/20 06:26:26;;;;;;;5.70;5.15;;;;;;;19.06;58.68;100874.25;1641077;86;21057;-49
2021/05/20 06:28:53;;;;;;;7.30;6.10;;;;;;;19.04;58.85;100879.59;1623933;86;21148;-49
2021/05/20 06:31:22;;;;;;;7.78;6.03;;;;;;;19.03;59.12;100879.22;1690260;83;21053;-49
2021/05/20 06:33:50;;;;;;;5.92;5.35;;;;;;;19.02;59.14;100886.73;1682027;83;21134;-50
2021/05/20 06:36:16;;;;;;;7.80;5.45;;;;;;;19.01;59.26;100887.68;1676851;83;21100;-49
2021/05/20 06:38:44;;;;;;;8.73;5.85;;;;;;;18.96;59.04;100892.83;1689890;83;21614;-49
2021/05/20 06:41:10;;;;;;;6.62;6.03;;;;;;;18.89;59.36;100893.62;1690543;83;21067;-50
2021/05/20 06:43:38;;;;;;;8.53;6.53;;;;;;;18.87;59.33;100898.13;1697996;83;21158;-50
2021/05/20 06:46:06;;;;;;;6.55;5.95;;;;;;;18.85;59.25;100899.99;1684262;83;21047;-49
2021/05/20 06:48:33;;;;;;;6.53;5.92;;;;;;;18.83;59.26;100897.05;1687378;83;21072;-49
2021/05/20 06:51:00;;;;;;;6.75;5.83;;;;;;;18.81;59.20;100894.50;1696691;83;23212;-50
2021/05/20 06:53:30;;;;;;;7.87;5.95;;;;;;;18.77;59.12;100882.41;1688336;83;21135;-49
2021/05/20 06:55:59;;;;;;;8.20;6.58;;;;;;;18.73;59.00;100880.87;1693844;83;21189;-49
2021/05/20 07:01:10;;;;;;;7.80;6.20;;;;;;;18.66;59.49;100880.80;1687672;83;21084;-49
2021/05/20 07:03:37;;;;;;;6.50;5.97;;;;;;;18.64;59.63;100882.67;1688416;83;21082;-50
2021/05/20 07:06:05;;;;;;;8.80;5.75;;;;;;;18.63;59.87;100878.31;1698113;83;21064;-49
2021/05/20 07:08:31;;;;;;;6.55;5.75;;;;;;;18.60;59.92;100886.40;1693682;83;21086;-49
2021/05/20 07:10:58;;;;;;;7.80;5.62;;;;;;;18.60;60.16;100893.84;1697036;83;21066;-49
2021/05/20 07:13:25;;;;;;;7.97;5.78;;;;;;;18.60;60.38;100904.39;1700187;83;21068;-50
2021/05/20 07:15:52;;;;;;;7.03;6.33;;;;;;;18.60;60.47;100896.94;1691165;83;21653;-49
2021/05/20 07:18:18;;;;;;;7.30;6.03;;;;;;;18.60;60.60;100895.63;1705014;79;21080;-50
2021/05/20 07:20:45;;;;;;;7.65;5.92;;;;;;;18.61;60.73;100889.41;1787350;79;21045;-49
2021/05/20 07:23:17;;;;;;;8.65;5.85;;;;;;;18.61;60.94;100893.36;1773691;79;21571;-50
2021/05/20 07:25:43;;;;;;;6.62;6.03;;;;;;;18.63;60.94;100890.17;1765111;79;21031;-50
2021/05/20 07:28:11;;;;;;;8.23;6.12;;;;;;;18.64;60.96;100890.58;1778572;79;21065;-50
2021/05/20 07:30:38;;;;;;;7.55;6.62;;;;;;;18.66;61.10;100884.30;1713456;82;21631;-49
2021/05/20 07:33:06;;;;;;;8.25;6.72;;;;;;;18.68;61.03;100874.98;1715544;82;21078;-49
2021/05/20 07:35:32;;;;;;;7.75;6.12;;;;;;;18.66;60.98;100867.17;1777011;79;21088;-49
2021/05/20 07:38:01;;;;;;;6.70;6.00;;;;;;;18.63;60.98;100858.09;1760777;80;21197;-49
2021/05/20 07:40:28;;;;;;;7.42;6.28;;;;;;;18.59;61.00;100864.45;1770758;80;21058;-50
2021/05/20 07:42:55;;;;;;;7.75;6.92;;;;;;;18.57;61.18;100868.09;1766843;79;21590;-49
2021/05/20 07:45:21;;;;;;;6.83;6.22;;;;;;;18.56;61.21;100867.73;1737714;80;21055;-49
2021/05/20 07:47:48;;;;;;;10.00;6.53;;;;;;;18.57;61.28;100866.78;1773613;80;21040;-49
2021/05/20 07:50:16;;;;;;;8.53;6.72;;;;;;;18.58;61.32;100876.41;1763197;79;21053;-49
2021/05/20 07:52:44;;;;;;;13.05;7.40;;;;;;;18.62;61.48;100893.76;1765555;79;21601;-49
2021/05/20 07:55:13;;;;;;;10.60;6.83;;;;;;;18.65;61.41;100900.17;1772368;79;21559;-49
2021/05/20 07:57:40;;;;;;;10.40;8.00;;;;;;;18.68;61.46;100898.25;1769337;79;21587;-50
2021/05/20 08:00:09;;;;;;;8.13;6.90;;;;;;;18.70;61.48;100903.43;1789578;79;21056;-49
2021/05/20 08:02:52;;;;;;;8.00;7.20;;;;;;;18.73;61.49;100907.70;1784940;79;21035;-49
2021/05/20 08:05:25;;;;;;;;;;;;;;;18.73;61.46;100904.60;1778144;79;21049;-50
2021/05/20 08:10:39;;;;;;;8.50;7.67;;;;;;;18.77;61.65;100901.33;1744128;80;21132;-50
2021/05/20 08:12:53;;;;;;;9.05;8.13;;;;;;;18.78;61.76;100895.97;1680091;83;21092;-49
2021/05/20 08:15:19;;;;;;;12.78;8.38;;;;;;;18.76;61.81;100904.42;1755434;80;21198;-50
2021/05/20 08:17:47;;;;;;;15.08;9.20;;;;;;;18.76;62.02;100903.11;1747848;80;21039;-49
2021/05/20 08:20:14;;;;;;;11.48;9.13;;;;;;;18.81;62.27;100885.27;1750615;80;21088;-50
2021/05/20 08:22:40;;;;;;;10.03;8.23;;;;;;;18.85;62.33;100875.41;1735155;80;21671;-50
2021/05/20 08:25:10;;;;;;;11.45;9.28;;;;;;;18.86;62.32;100867.86;1744058;80;21044;-49
2021/05/20 08:27:37;;;;;;;9.60;8.70;;;;;;;18.87;62.36;100870.89;1718273;80;21592;-49
2021/05/20 08:30:07;;;;;;;10.50;8.78;;;;;;;18.88;62.33;100866.85;1772459;80;21044;-49
2021/05/20 08:32:33;;;;;;;9.43;8.38;;;;;;;18.88;62.18;100862.03;1763351;80;21036;-49
2021/05/20 08:35:00;;;;;;;9.75;8.85;;;;;;;18.86;62.21;100861.27;1756082;80;21880;-49
2021/05/20 08:37:28;;;;;;;11.93;8.48;;;;;;;18.82;62.22;100863.23;1757920;80;21084;-49
2021/05/20 08:39:55;;;;;;;10.23;9.23;;;;;;;18.78;62.37;100855.56;1756435;80;21103;-49
2021/05/20 08:42:22;;;;;;;10.60;8.55;;;;;;;18.74;62.58;100848.30;1749038;80;21052;-49
2021/05/20 08:44:49;;;;;;;9.45;7.75;;;;;;;18.77;62.59;100844.19;1755547;80;21080;-50
2021/05/20 08:47:16;;;;;;;10.13;9.10;;;;;;;18.79;62.61;100840.14;1753393;80;21602;-50
2021/05/20 08:49:47;;;;;;;8.88;8.03;;;;;;;18.78;62.66;100841.92;1741230;80;21107;-49
2021/05/20 08:52:13;;;;;;;9.83;8.88;;;;;;;18.81;62.68;100843.55;1726184;82;21056;-50
2021/05/20 08:54:41;;;;;;;9.78;8.88;;;;;;;18.80;62.77;100844.01;1752440;80;21625;-50
2021/05/20 08:57:08;;;;;;;10.25;7.97;;;;;;;18.80;62.87;100847.10;1740100;81;21119;-49
2021/05/20 08:59:34;;;;;;;12.13;8.75;;;;;;;18.80;62.82;100857.19;1756324;80;21051;-50
2021/05/20 09:02:01;;;;;;;9.55;8.18;;;;;;;18.80;62.74;100855.02;1747035;80;21631;-49
2021/05/20 09:04:27;;;;;;;9.18;8.15;;;;;;;18.79;62.83;100863.87;1760939;79;21020;-50
2021/05/20 09:07:02;;;;;;;10.70;7.62;;;;;;;18.80;62.79;100861.60;1771185;79;21020;-50
2021/05/20 09:09:34;;;;;;;9.28;8.38;;;;;;;18.75;62.82;100861.88;1781219;79;21041;-49
2021/05/20 09:11:59;;;;;;;9.45;7.65;;;;;;;18.72;62.74;100877.84;1780981;79;21079;-50
2021/05/20 09:14:35;;;;;;;12.68;8.23;;;;;;;18.65;62.94;100877.77;1775893;79;21045;-49
2021/05/20 09:17:21;;;;;;;8.00;7.20;;;;;;;18.56;62.89;100877.81;1773117;79;21053;-49
2021/05/20 09:19:55;;;;;;;9.15;8.13;;;;;;;18.48;63.21;100868.59;1773027;79;21052;-49
2021/05/20 09:22:22;;;;;;;9.98;7.75;;;;;;;18.36;63.41;100865.26;1777871;79;21519;-49
2021/05/20 09:24:55;;;;;;;7.75;7.05;;;;;;;18.31;63.86;100879.12;1767393;80;21028;-50
2021/05/20 09:27:26;;;;;;;7.70;6.95;;;;;;;18.27;64.01;100882.84;1729956;82;21116;-49
2021/05/20 09:30:16;;;;;;;7.45;6.67;;;;;;;18.22;64.19;100869.05;1685292;84;21077;-49
2021/05/20 09:32:57;;;;;;;8.33;7.50;;;;;;;18.18;64.42;100872.77;1686491;84;21141;-49
2021/05/20 09:35:29;;;;;;;8.77;7.97;;;;;;;18.14;64.62;100866.81;1681327;84;21084;-49
2021/05/20 09:37:59;;;;;;;;;;;;;;;18.09;65.09;100879.84;1578843;89;21106;-49
2021/05/20 09:40:32;;;;;;;8.08;7.37;;;;;;;18.07;65.31;100879.06;1561825;91;20188;-50
2021/05/20 09:42:59;;;;;;;7.90;6.67;;;;;;;18.01;65.52;100867.52;1542844;91;21724;-49
2021/05/20 09:45:27;;;;;;;7.53;6.58;;;;;;;17.99;65.82;100857.05;1565458;91;21164;-50
2021/05/20 09:48:06;;;;;;;6.92;6.25;;;;;;;18.02;65.92;100834.98;1564517;91;21714;-50
2021/05/20 09:50:44;;;;;;;7.80;7.00;;;;;;;18.04;65.77;100816.00;1518672;94;21058;-49
2021/05/20 09:53:26;;;;;;;8.30;7.45;;;;;;;18.00;65.99;100821.05;1498595;93;21191;-49
2021/05/20 09:56:00;;;;;;;9.75;7.83;;;;;;;18.01;66.27;100828.85;1517887;93;21151;-50
2021/05/20 09:58:31;;;;;;;9.15;8.18;;;;;;;18.03;66.45;100821.77;1502216;95;21077;-50
2021/05/20 10:01:01;;;;;;;8.10;7.40;;;;;;;18.04;66.58;100818.64;1458395;96;21122;-50
2021/05/20 10:03:34;;;;;;;7.70;6.92;;;;;;;18.08;66.63;100818.87;1466180;96;21094;-49
2021/05/20 10:08:32;;;;;;;6.92;6.22;;;;;;;18.20;66.45;100811.64;1425004;99;21148;-50
2021/05/20 10:11:01;;;;;;;6.60;6.00;;;;;;;18.24;66.31;100810.55;1420632;99;21129;-49
2021/05/20 10:13:29;;;;;;;7.05;6.05;;;;;;;18.25;66.19;100813.59;1433406;98;21248;-50
2021/05/20 10:15:57;;;;;;;6.00;5.40;;;;;;;18.27;66.26;100809.09;1419888;99;21601;-49
2021/05/20 10:18:26;;;;;;;5.78;5.28;;;;;;;18.26;66.12;100810.03;1453116;97;21167;-49
2021/05/20 10:21:00;;;;;;;5.67;5.05;;;;;;;18.28;66.15;100813.44;1474993;96;22838;-49
2021/05/20 10:23:27;;;;;;;4.70;4.28;;;;;;;18.30;66.18;100801.86;1478616;96;21331;-49
2021/05/20 10:25:55;;;;;;;4.92;4.42;;;;;;;18.34;65.87;100792.04;1479034;96;21622;-49
2021/05/20 10:28:23;;;;;;;4.53;4.12;;;;;;;18.37;65.83;100799.77;1477651;97;21138;-50
2021/05/20 10:30:54;;;;;;;5.17;4.28;;;;;;;18.38;65.84;100791.77;1462821;96;21107;-49
2021/05/20 10:33:27;;;;;;;4.67;4.28;;;;;;;18.40;65.87;100812.79;1469153;97;21725;-49
2021/05/20 10:35:57;;;;;;;4.60;4.20;;;;;;;18.44;65.99;100823.58;1504670;93;21123;-50
2021/05/20 10:38:34;;;;;;;4.78;4.10;;;;;;;18.48;65.85;100802.27;1519584;93;21159;-49
2021/05/20 10:41:20;;;;;;;4.35;3.98;;;;;;;18.53;65.77;100805.95;1505806;93;21258;-49
2021/05/20 13:13:05;;;;;;;2.55;2.35;;;;;;;16.65;76.96;100638.91;1810257;77;26460;-50
2021/05/20 13:15:55;;;;;;;2.30;2.10;;;;;;;18.10;69.66;100635.30;1763738;80;21054;-49
2021/05/20 13:23:28;;;;;;;2.12;2.02;;;;;;;18.60;65.94;100636.03;1612297;86;21084;-47
2021/05/20 13:25:56;;;;;;;3.27;2.20;;;;;;;18.65;65.52;100644.52;1630342;86;21071;-48
2021/05/20 13:35:52;;;;;;;2.35;2.15;;;;;;;18.92;64.38;100657.94;1454630;96;21143;-48
2021/05/20 13:38:20;;;;;;;2.60;2.25;;;;;;;18.98;64.20;100674.72;1462338;96;21157;-50
2021/05/20 13:40:49;;;;;;;4.20;2.52;;;;;;;19.01;63.73;100687.25;1470264;96;21192;-48
2021/05/20 13:43:16;;;;;;;3.17;2.10;;;;;;;19.03;63.27;100666.92;1481240;95;21167;-49
2021/05/20 13:45:43;;;;;;;3.30;2.65;;;;;;;19.03;62.56;100711.75;1479515;95;21139;-48
2021/05/20 13:48:10;;;;;;;4.58;3.77;;;;;;;19.02;62.62;100728.50;1474028;95;21135;-48
2021/05/20 13:50:37;;;;;;;4.90;3.58;;;;;;;19.01;62.28;100738.68;1473687;95;21195;-47
2021/05/20 13:53:05;;;;;;;3.52;3.20;;;;;;;19.01;61.96;100741.77;1472035;96;21753;-49
2021/05/20 13:55:32;;;;;;;6.03;3.55;;;;;;;19.02;61.85;100727.67;1475885;96;21190;-47
2021/05/20 13:57:59;;;;;;;5.65;3.80;;;;;;;18.98;61.65;100728.29;1482056;96;21224;-48
2021/05/20 14:00:34;;;;;;;5.00;4.25;;;;;;;18.91;61.67;100730.91;1488152;95;21144;-48
2021/05/20 14:03:03;;;;;;;7.60;4.28;;;;;;;18.88;62.02;100720.52;1486992;94;21131;-47
2021/05/20 14:05:30;;;;;;;5.67;4.10;;;;;;;18.83;61.76;100705.45;1482840;95;21138;-48
2021/05/20 14:07:56;;;;;;;5.72;3.70;;;;;;;18.78;61.77;100687.70;1489141;94;21137;-48
2021/05/20 14:10:25;;;;;;;5.37;4.15;;;;;;;18.70;61.91;100650.39;1493792;94;21703;-48
2021/05/20 14:12:51;;;;;;;6.62;4.92;;;;;;;18.57;62.10;100612.48;1501429;94;21634;-48
2021/05/20 14:15:18;;;;;;;5.35;4.62;;;;;;;18.48;62.58;100589.30;1495970;94;21607;-47
2021/05/20 14:17:46;;;;;;;6.25;4.80;;;;;;;18.42;62.63;100571.17;1508831;92;21075;-48
2021/05/20 14:20:16;;;;;;;4.25;3.65;;;;;;;18.36;62.75;100566.25;1521886;93;21763;-48
2021/05/20 14:22:43;;;;;;;3.67;3.30;;;;;;;18.30;63.11;100566.61;1525401;93;21120;-49
2021/05/20 14:25:10;;;;;;;4.97;3.37;;;;;;;18.21;63.37;100578.50;1513370;93;21686;-48